Portada
METAR-TAF:

METAR-TAF

Aeroports :

Toliara, Madagascar

latitud: 23-23S, longitud: 043-44E, altitud: 8 m

METAR: manca

Hora: 15:58 (12:58 UTC)

Pronòstic

L'informe es va fer fa 1 hora i 58 minuts, a les 11:00 UTC
Pronòstic vàlid del 30 a les 12 UTC al 31 a les 12 UTC
Vent 15 kt del Oest/Sud-Oest
Visibilitat 10 km o més
Escasses núvols a una alçada de 2000 ft
Evolucionant progressivament
l' 30 a les 16 UTC al 30 a les 19 UTC
Vent 10 kt del Sud

TAF: FMST 301100Z 3012/3112 24015KT 9999 FEW020 BECMG 3016/3019 18010KT

Observacions i pronòstics meteorològics de més de 4000 aeroports (METAR i TAF).

Les estacions disponibles són els punts grocs i vermells al mapa.

Posi el ratolí al punt desitjat per veure el nom de l'estació.

Feu clic per veure les observacions i els pronòstics meteorològics.

Per canviar el mapa: feu clic els botons verds amb una creu de color negre per apropar; al botó verd amb un guió per allunyar la imatge; o en les fletxes verdes per a mapes adjacents.


METAR-TAF: